Main page
METAR-TAF:

METAR-TAF

Airports :

Mariehamn Airport

Mariehamn, Finland

latitude: 60-07N, longitude: 019-54E, elevation: 6 m

Current weather observation

The report was made 26 minutes ago, at 04:20 UTC
Wind 5 kt from the North, varying between Northwest and North/Northeast
Temperature 9°C
Humidity 87%
Pressure 1032 hPa
Visibility 10 km or more
no clouds below 1500 m and no cumulonimbus

METAR: EFMA 260420Z AUTO 35005KT 320V030 CAVOK 09/07 Q1032

Time: 07:46 (04:46 UTC)

Forecast

The report was made 2 hours and 19 minutes ago, at 02:27 UTC
Forecast valid from 26 at 03 UTC to 26 at 12 UTC
Wind 3 kt from the North/Northwest
Visibility: 1100 m
mist
Becoming
from 26 at 03 UTC to 26 at 05 UTC
Visibility 10 km or more
no clouds below 1500 m and no cumulonimbus

TAF: EFMA 260227Z 2603/2612 34003KT 1100 BR NSC BECMG 2603/2605 CAVOK

Weather observations and forecasts of more than 4000 airports (METAR and TAF reports).

The available stations are represented by yellow and red dots on the map.

Hover mouse over dot to see the name of the station.

Then click to see weather observations and forecasts.

To change the map : click on the green buttons with a black cross to zoom in, on the green button with a dash to zoom out, or on the green arrows for adjacent maps.


METAR-TAF: